createdAt,value
2023-02-19T00:00:26.806Z,61.59
2023-02-19T00:02:55.085Z,61.56
2023-02-19T00:05:22.002Z,60.58
2023-02-19T00:07:48.994Z,60.93
2023-02-19T00:10:16.250Z,60.22
2023-02-19T00:12:43.211Z,60.72
2023-02-19T00:15:10.100Z,60.62
2023-02-19T00:17:37.051Z,60.32
2023-02-19T00:20:03.995Z,60.08
2023-02-19T00:22:30.965Z,60.02
2023-02-19T00:24:57.925Z,59.71
2023-02-19T00:27:24.944Z,60.48
2023-02-19T00:29:51.845Z,60.44
2023-02-19T00:32:18.834Z,60.99
2023-02-19T00:34:46.086Z,60.34
2023-02-19T00:37:12.981Z,59.63
2023-02-19T00:39:40.086Z,60.55
2023-02-19T00:42:07.514Z,61.11
2023-02-19T00:44:34.433Z,60.52
2023-02-19T00:47:01.421Z,60.47
2023-02-19T00:49:28.400Z,60.46
2023-02-19T00:51:55.422Z,60.20
2023-02-19T00:54:22.323Z,59.91
2023-02-19T00:56:49.793Z,60.52
2023-02-19T00:59:17.198Z,60.20
2023-02-19T01:01:45.087Z,60.65
2023-02-19T01:04:12.268Z,61.12
2023-02-19T01:06:39.321Z,60.59
2023-02-19T01:09:06.328Z,60.98
2023-02-19T01:11:33.528Z,61.03
2023-02-19T01:14:01.795Z,59.90
2023-02-19T01:16:29.110Z,60.42
2023-02-19T01:18:57.519Z,60.36
2023-02-19T01:21:26.872Z,60.86
2023-02-19T01:23:54.389Z,60.88
2023-02-19T01:26:24.434Z,60.66
2023-02-19T01:28:51.874Z,60.51
2023-02-19T01:31:21.966Z,60.91
2023-02-19T01:33:51.813Z,61.46
2023-02-19T01:36:19.364Z,62.09
2023-02-19T01:38:46.534Z,61.37
2023-02-19T01:41:19.876Z,60.42
2023-02-19T01:44:05.809Z,60.69
2023-02-19T01:46:34.480Z,60.60
2023-02-19T01:49:21.380Z,61.31
2023-02-19T01:52:00.773Z,60.46
2023-02-19T01:54:36.624Z,60.20
2023-02-19T01:57:08.231Z,60.63
2023-02-19T01:59:35.492Z,60.32
2023-02-19T02:02:02.648Z,60.78
2023-02-19T02:04:33.248Z,60.80
2023-02-19T02:07:02.747Z,60.48
2023-02-19T02:09:31.186Z,61.10
2023-02-19T02:11:58.507Z,60.68
2023-02-19T02:14:29.180Z,60.96
2023-02-19T02:17:20.647Z,61.10
2023-02-19T02:19:54.944Z,60.68
2023-02-19T02:22:41.692Z,61.14
2023-02-19T02:25:21.569Z,61.50
2023-02-19T02:27:55.270Z,61.25
2023-02-19T02:30:27.388Z,60.71
2023-02-19T02:32:54.390Z,61.73
2023-02-19T02:35:30.842Z,61.52
2023-02-19T02:38:03.776Z,61.40
2023-02-19T02:40:32.290Z,61.36
2023-02-19T02:43:01.047Z,61.43
2023-02-19T02:45:31.636Z,61.00
2023-02-19T02:47:58.772Z,61.66
2023-02-19T02:50:31.734Z,61.42
2023-02-19T02:53:05.507Z,61.92
2023-02-19T02:55:39.451Z,61.71
2023-02-19T02:58:08.124Z,60.38
2023-02-19T03:00:38.283Z,60.76
2023-02-19T03:03:06.531Z,60.68
2023-02-19T03:05:34.240Z,61.24
2023-02-19T03:08:08.138Z,60.98
2023-02-19T03:10:42.954Z,60.86
2023-02-19T03:13:22.689Z,60.03
2023-02-19T03:16:04.228Z,60.48
2023-02-19T03:18:34.295Z,60.26
2023-02-19T03:21:04.214Z,60.26
2023-02-19T03:23:33.655Z,59.82
2023-02-19T03:26:00.693Z,59.95
2023-02-19T03:28:40.739Z,59.18
2023-02-19T03:31:12.902Z,59.50
2023-02-19T03:33:43.333Z,59.41
2023-02-19T03:36:14.021Z,59.19
2023-02-19T03:38:52.329Z,60.10
2023-02-19T03:41:48.901Z,60.65
2023-02-19T03:44:44.975Z,59.76
2023-02-19T03:47:33.099Z,59.58
2023-02-19T03:50:11.233Z,59.97
2023-02-19T03:53:06.133Z,61.25
2023-02-19T03:55:50.818Z,61.02
2023-02-19T03:58:50.312Z,60.09
2023-02-19T04:01:27.147Z,59.66
2023-02-19T04:04:00.245Z,59.81
2023-02-19T04:06:30.476Z,59.75
2023-02-19T04:09:02.296Z,60.06
2023-02-19T04:11:32.285Z,60.65
2023-02-19T04:14:19.402Z,60.58
2023-02-19T04:16:51.467Z,59.57
2023-02-19T04:19:22.918Z,60.12
2023-02-19T04:21:53.638Z,59.75
2023-02-19T04:24:29.084Z,60.07
2023-02-19T04:26:56.536Z,60.30
2023-02-19T04:29:23.527Z,60.11
2023-02-19T04:31:50.797Z,59.76
2023-02-19T04:34:17.777Z,59.32
2023-02-19T04:36:44.669Z,59.20
2023-02-19T04:39:11.535Z,59.30
2023-02-19T04:41:38.692Z,59.17
2023-02-19T04:44:05.724Z,59.30
2023-02-19T04:46:32.812Z,59.20
2023-02-19T04:48:59.734Z,59.45
2023-02-19T04:51:26.733Z,59.37
2023-02-19T04:53:53.694Z,58.80
2023-02-19T04:56:20.714Z,59.52
2023-02-19T04:58:47.651Z,59.20
2023-02-19T05:01:14.864Z,59.26
2023-02-19T05:03:42.018Z,58.42
2023-02-19T05:06:12.460Z,58.50
2023-02-19T05:08:39.957Z,57.87
2023-02-19T05:11:09.566Z,58.80
2023-02-19T05:13:37.128Z,57.57
2023-02-19T05:16:07.357Z,58.20
2023-02-19T05:18:34.880Z,58.42
2023-02-19T05:21:02.424Z,58.45
2023-02-19T05:23:29.376Z,57.72
2023-02-19T05:25:56.592Z,57.85
2023-02-19T05:28:24.368Z,57.90
2023-02-19T05:30:53.046Z,58.35
2023-02-19T05:33:21.923Z,57.89
2023-02-19T05:35:54.673Z,57.53
2023-02-19T05:38:23.049Z,57.14
2023-02-19T05:40:50.760Z,57.33
2023-02-19T05:43:18.086Z,57.08
2023-02-19T05:45:45.077Z,57.18
2023-02-19T05:48:12.380Z,56.47
2023-02-19T05:50:39.966Z,57.03
2023-02-19T05:53:13.985Z,57.71
2023-02-19T05:55:40.991Z,57.26
2023-02-19T05:58:07.868Z,57.07
2023-02-19T06:00:35.124Z,56.67
2023-02-19T06:03:02.369Z,56.24
2023-02-19T06:05:29.350Z,56.23
2023-02-19T06:07:56.321Z,55.94
2023-02-19T06:10:23.527Z,55.71
2023-02-19T06:12:53.666Z,55.91
2023-02-19T06:15:21.182Z,55.95
2023-02-19T06:17:49.062Z,54.96
2023-02-19T06:20:16.481Z,55.29
2023-02-19T06:22:43.468Z,55.19
2023-02-19T06:25:10.538Z,54.50
2023-02-19T06:27:37.359Z,54.67
2023-02-19T06:30:04.634Z,54.72
2023-02-19T06:32:31.698Z,54.82
2023-02-19T06:34:58.683Z,55.03
2023-02-19T06:37:25.642Z,54.90
2023-02-19T06:39:52.993Z,54.89
2023-02-19T06:42:19.966Z,54.31
2023-02-19T06:44:47.031Z,53.63
2023-02-19T06:47:13.928Z,53.85
2023-02-19T06:49:41.046Z,54.50
2023-02-19T06:52:07.946Z,54.33
2023-02-19T06:54:34.909Z,52.87
2023-02-19T06:57:01.802Z,53.05
2023-02-19T06:59:28.783Z,51.89
2023-02-19T07:01:55.727Z,51.84
2023-02-19T07:04:22.762Z,51.09
2023-02-19T07:06:49.740Z,51.34
2023-02-19T07:09:16.751Z,51.99
2023-02-19T07:11:43.616Z,52.20
2023-02-19T07:14:16.083Z,52.09
2023-02-19T07:16:44.166Z,51.74
2023-02-19T07:19:11.275Z,50.57
2023-02-19T07:21:38.775Z,51.44
2023-02-19T07:24:06.253Z,51.06
2023-02-19T07:26:33.229Z,50.86
2023-02-19T07:29:01.137Z,50.98
2023-02-19T07:31:28.841Z,50.58
2023-02-19T07:33:56.175Z,50.59
2023-02-19T07:36:25.135Z,50.54
2023-02-19T07:38:56.463Z,51.07
2023-02-19T07:41:24.897Z,51.27
2023-02-19T07:43:52.040Z,50.94
2023-02-19T07:46:21.262Z,51.00
2023-02-19T07:48:48.308Z,50.55
2023-02-19T07:51:19.190Z,51.29
2023-02-19T07:53:47.327Z,49.89
2023-02-19T07:56:14.410Z,50.65
2023-02-19T07:58:41.667Z,50.66
2023-02-19T08:01:20.597Z,50.56
2023-02-19T08:03:50.316Z,50.39
2023-02-19T08:06:17.394Z,49.71
2023-02-19T08:08:44.357Z,49.20
2023-02-19T08:11:11.467Z,49.63
2023-02-19T08:13:38.737Z,49.34
2023-02-19T08:16:17.317Z,50.66
2023-02-19T08:18:48.145Z,49.23
2023-02-19T08:21:15.677Z,48.96
2023-02-19T08:23:42.712Z,49.42
2023-02-19T08:26:09.808Z,49.01
2023-02-19T08:28:36.836Z,49.04
2023-02-19T08:31:06.675Z,49.16
2023-02-19T08:33:33.837Z,49.15
2023-02-19T08:36:09.020Z,47.91
2023-02-19T08:38:36.771Z,48.35
2023-02-19T08:41:10.230Z,47.50
2023-02-19T08:43:37.553Z,47.01
2023-02-19T08:46:04.902Z,46.57
2023-02-19T08:48:32.068Z,46.49
2023-02-19T08:51:05.155Z,46.98
2023-02-19T08:53:33.169Z,46.44
2023-02-19T08:56:11.719Z,46.53
2023-02-19T08:58:39.493Z,47.07
2023-02-19T09:01:11.220Z,46.60
2023-02-19T09:03:38.408Z,46.41
2023-02-19T09:06:05.497Z,47.06
2023-02-19T09:08:32.437Z,46.27
2023-02-19T09:11:03.915Z,45.89
2023-02-19T09:13:31.266Z,45.40
2023-02-19T09:15:58.277Z,45.72
2023-02-19T09:18:26.196Z,44.96
2023-02-19T09:20:53.417Z,44.56
2023-02-19T09:23:20.477Z,44.67
2023-02-19T09:25:47.401Z,44.36
2023-02-19T09:28:14.552Z,44.86
2023-02-19T09:30:41.622Z,44.14
2023-02-19T09:33:08.584Z,43.67
2023-02-19T09:35:39.647Z,44.24
2023-02-19T09:38:06.691Z,43.60
2023-02-19T09:40:36.293Z,44.43
2023-02-19T09:43:07.864Z,44.42
2023-02-19T09:45:36.012Z,45.63
2023-02-19T09:48:03.102Z,45.99
2023-02-19T09:50:39.049Z,44.85
2023-02-19T09:53:17.599Z,44.20
2023-02-19T09:55:45.624Z,43.79
2023-02-19T09:58:30.807Z,44.26
2023-02-19T10:01:01.340Z,45.29
2023-02-19T10:03:35.972Z,45.92
2023-02-19T10:06:23.772Z,44.74
2023-02-19T10:09:06.432Z,44.29
2023-02-19T10:11:33.628Z,44.88
2023-02-19T10:14:07.558Z,45.30
2023-02-19T10:16:36.356Z,46.18
2023-02-19T10:19:03.266Z,45.55
2023-02-19T10:21:30.313Z,45.15
2023-02-19T10:24:01.952Z,44.86
2023-02-19T10:26:29.058Z,44.05
2023-02-19T10:28:56.046Z,44.15
2023-02-19T10:31:25.646Z,42.94
2023-02-19T10:33:54.906Z,43.88
2023-02-19T10:36:38.749Z,43.35
2023-02-19T10:39:39.864Z,42.83
2023-02-19T10:42:14.765Z,43.72
2023-02-19T10:44:49.791Z,43.21
2023-02-19T10:47:24.010Z,43.97
2023-02-19T10:49:52.742Z,43.63
2023-02-19T10:52:31.693Z,42.84
2023-02-19T10:55:25.918Z,43.47
2023-02-19T10:57:53.056Z,43.45
2023-02-19T11:00:30.842Z,43.16
2023-02-19T11:03:33.622Z,42.92
2023-02-19T11:06:03.402Z,42.38
2023-02-19T11:08:36.780Z,43.88
2023-02-19T11:11:03.868Z,44.15
2023-02-19T11:13:34.819Z,43.85
2023-02-19T11:16:02.070Z,43.08
2023-02-19T11:18:32.000Z,42.97
2023-02-19T11:21:02.845Z,43.35
2023-02-19T11:23:36.406Z,43.36
2023-02-19T11:26:07.463Z,43.21
2023-02-19T11:28:37.686Z,43.70
2023-02-19T11:31:31.879Z,44.22
2023-02-19T11:33:59.047Z,43.89
2023-02-19T11:36:33.886Z,44.20
2023-02-19T11:39:14.901Z,44.35
2023-02-19T11:42:06.571Z,44.36
2023-02-19T11:44:52.897Z,44.53
2023-02-19T11:47:38.467Z,44.50
2023-02-19T11:50:23.158Z,44.06
2023-02-19T11:53:05.222Z,44.51
2023-02-19T11:56:10.706Z,43.78
2023-02-19T11:58:51.823Z,44.10
2023-02-19T12:01:43.595Z,45.37
2023-02-19T12:04:51.922Z,45.36
2023-02-19T12:07:37.313Z,45.19
2023-02-19T12:10:13.196Z,44.76
2023-02-19T12:13:08.085Z,44.49
2023-02-19T12:15:44.014Z,44.83
2023-02-19T12:18:14.079Z,45.13
2023-02-19T12:21:14.360Z,45.95
2023-02-19T12:23:47.457Z,45.71
2023-02-19T12:26:32.612Z,46.00
2023-02-19T12:29:22.286Z,45.74
2023-02-19T12:31:49.302Z,45.76
2023-02-19T12:34:44.160Z,46.21
2023-02-19T12:37:26.790Z,46.49
2023-02-19T12:40:20.861Z,46.04
2023-02-19T12:43:06.371Z,46.37
2023-02-19T12:45:45.424Z,46.17
2023-02-19T12:48:41.173Z,45.73
2023-02-19T12:51:24.116Z,46.36
2023-02-19T12:53:59.894Z,46.74
2023-02-19T12:56:34.982Z,47.16
2023-02-19T12:59:11.141Z,47.10
2023-02-19T13:01:52.849Z,47.04
2023-02-19T13:04:34.258Z,46.69
2023-02-19T13:07:44.139Z,46.93
2023-02-19T13:10:11.228Z,47.81
2023-02-19T13:12:43.019Z,48.27
2023-02-19T13:15:18.530Z,48.20
2023-02-19T13:17:50.615Z,48.82
2023-02-19T13:20:32.537Z,49.22
2023-02-19T13:23:25.740Z,49.36
2023-02-19T13:26:17.146Z,49.24
2023-02-19T13:29:28.956Z,49.81
2023-02-19T13:32:33.468Z,49.68
2023-02-19T13:35:22.510Z,50.74
2023-02-19T13:37:50.696Z,50.46
2023-02-19T13:40:27.154Z,50.36
2023-02-19T13:43:05.617Z,50.27
2023-02-19T13:45:43.089Z,50.80
2023-02-19T13:48:26.183Z,51.04
2023-02-19T13:51:13.622Z,51.34
2023-02-19T13:53:43.900Z,50.92
2023-02-19T13:56:32.680Z,51.49
2023-02-19T13:59:21.281Z,50.67
2023-02-19T14:01:51.449Z,51.28
2023-02-19T14:04:20.740Z,51.29
2023-02-19T14:07:03.129Z,51.89
2023-02-19T14:09:39.375Z,52.01
2023-02-19T14:12:09.487Z,52.46
2023-02-19T14:14:39.154Z,52.46
2023-02-19T14:17:09.055Z,53.07
2023-02-19T14:19:42.248Z,53.89
2023-02-19T14:22:46.495Z,53.50
2023-02-19T14:25:28.654Z,53.48
2023-02-19T14:28:05.611Z,54.18
2023-02-19T14:30:34.754Z,53.07
2023-02-19T14:33:11.418Z,54.25
2023-02-19T14:35:42.914Z,54.47
2023-02-19T14:38:46.206Z,54.31
2023-02-19T14:41:16.224Z,53.51
2023-02-19T14:43:46.902Z,54.47
2023-02-19T14:46:45.346Z,55.05
2023-02-19T14:49:25.901Z,54.78
2023-02-19T14:52:19.740Z,55.15
2023-02-19T14:54:54.426Z,54.71
2023-02-19T14:57:27.411Z,55.16
2023-02-19T15:00:00.100Z,54.65
2023-02-19T15:02:32.617Z,55.12
2023-02-19T15:04:59.937Z,54.90
2023-02-19T15:07:31.936Z,55.41
2023-02-19T15:10:04.923Z,55.93
2023-02-19T15:12:57.821Z,55.21
2023-02-19T15:15:29.536Z,55.82
2023-02-19T15:17:58.384Z,55.71
2023-02-19T15:20:31.269Z,55.24
2023-02-19T15:23:00.993Z,56.63
2023-02-19T15:25:35.223Z,56.13
2023-02-19T15:28:21.706Z,56.09
2023-02-19T15:30:48.719Z,56.68
2023-02-19T15:33:20.378Z,55.76
2023-02-19T15:35:53.984Z,55.44
2023-02-19T15:38:22.938Z,55.78
2023-02-19T15:40:50.573Z,56.62
2023-02-19T15:43:42.272Z,57.18
2023-02-19T15:46:19.948Z,56.38
2023-02-19T15:49:25.903Z,55.84
2023-02-19T15:52:16.648Z,56.52
2023-02-19T15:54:56.913Z,56.82
2023-02-19T15:57:32.792Z,56.95
2023-02-19T16:00:12.435Z,56.31
2023-02-19T16:02:42.039Z,56.40
2023-02-19T16:05:24.452Z,56.73
2023-02-19T16:08:14.064Z,56.28
2023-02-19T16:11:03.485Z,57.04
2023-02-19T16:13:33.252Z,56.70
2023-02-19T16:16:07.119Z,56.83
2023-02-19T16:18:35.177Z,56.63
2023-02-19T16:21:09.187Z,56.45
2023-02-19T16:23:44.988Z,56.23
2023-02-19T16:26:13.998Z,56.72
2023-02-19T16:28:43.286Z,55.99
2023-02-19T16:31:13.541Z,56.51
2023-02-19T16:33:46.506Z,56.50
2023-02-19T16:36:25.443Z,56.14
2023-02-19T16:39:07.496Z,56.13
2023-02-19T16:41:40.427Z,56.32
2023-02-19T16:44:25.822Z,56.74
2023-02-19T16:46:57.950Z,56.69
2023-02-19T16:49:24.994Z,56.35
2023-02-19T16:51:52.490Z,57.51
2023-02-19T16:54:19.898Z,57.21
2023-02-19T16:56:47.047Z,56.43
2023-02-19T16:59:14.026Z,56.87
2023-02-19T17:01:41.425Z,56.52
2023-02-19T17:04:11.359Z,57.16
2023-02-19T17:06:39.724Z,57.70
2023-02-19T17:09:09.269Z,57.39
2023-02-19T17:11:36.735Z,57.12
2023-02-19T17:14:03.938Z,57.67
2023-02-19T17:16:33.664Z,57.63
2023-02-19T17:19:00.761Z,57.04
2023-02-19T17:21:30.216Z,57.30
2023-02-19T17:23:57.395Z,57.52
2023-02-19T17:26:29.518Z,57.48
2023-02-19T17:28:57.865Z,57.40
2023-02-19T17:31:28.478Z,57.36
2023-02-19T17:33:55.573Z,57.18
2023-02-19T17:36:30.180Z,56.85
2023-02-19T17:38:59.086Z,57.04
2023-02-19T17:41:26.930Z,57.53
2023-02-19T17:43:55.178Z,57.57
2023-02-19T17:46:24.621Z,58.31
2023-02-19T17:48:52.501Z,58.30
2023-02-19T17:51:20.033Z,59.07
2023-02-19T17:53:46.961Z,59.66
2023-02-19T17:56:23.273Z,59.17
2023-02-19T17:58:50.281Z,59.42
2023-02-19T18:01:17.508Z,60.18
2023-02-19T18:03:44.830Z,58.48
2023-02-19T18:06:13.047Z,58.85
2023-02-19T18:08:40.169Z,60.43
2023-02-19T18:11:07.686Z,61.11
2023-02-19T18:13:34.717Z,59.71
2023-02-19T18:16:01.906Z,60.71
2023-02-19T18:18:29.043Z,60.56
2023-02-19T18:20:56.194Z,60.04
2023-02-19T18:23:23.812Z,60.61
2023-02-19T18:25:51.767Z,59.85
2023-02-19T18:28:18.909Z,60.80
2023-02-19T18:30:45.882Z,60.41
2023-02-19T18:33:13.093Z,61.07
2023-02-19T18:35:40.321Z,60.82
2023-02-19T18:38:10.027Z,61.56
2023-02-19T18:40:37.253Z,62.04
2023-02-19T18:43:05.431Z,63.36
2023-02-19T18:45:33.556Z,62.42
2023-02-19T18:48:01.299Z,63.04
2023-02-19T18:50:28.161Z,62.78
2023-02-19T18:52:55.137Z,62.79
2023-02-19T18:55:22.166Z,62.03
2023-02-19T18:57:49.192Z,62.88
2023-02-19T19:00:26.409Z,62.74
2023-02-19T19:02:58.365Z,62.55
2023-02-19T19:05:27.032Z,62.82
2023-02-19T19:07:56.114Z,62.41
2023-02-19T19:10:23.600Z,62.59
2023-02-19T19:12:51.122Z,62.96
2023-02-19T19:15:19.301Z,62.70
2023-02-19T19:17:48.481Z,63.32
2023-02-19T19:20:23.540Z,63.80
2023-02-19T19:22:52.664Z,63.76
2023-02-19T19:25:21.505Z,64.10
2023-02-19T19:27:48.596Z,63.85
2023-02-19T19:30:15.701Z,64.37
2023-02-19T19:32:42.711Z,65.11
2023-02-19T19:35:09.934Z,65.52
2023-02-19T19:37:39.276Z,65.69
2023-02-19T19:40:06.902Z,66.55
2023-02-19T19:42:33.984Z,67.51
2023-02-19T19:45:00.905Z,67.74
2023-02-19T19:47:27.899Z,67.91
2023-02-19T19:49:54.798Z,68.35
2023-02-19T19:52:22.230Z,68.87
2023-02-19T19:54:49.316Z,68.71
2023-02-19T19:57:16.438Z,68.60
2023-02-19T19:59:43.420Z,68.82
2023-02-19T20:02:12.161Z,68.73
2023-02-19T20:04:39.076Z,68.14
2023-02-19T20:07:06.122Z,68.63
2023-02-19T20:09:33.157Z,67.62
2023-02-19T20:12:00.190Z,68.29
2023-02-19T20:14:27.333Z,67.91
2023-02-19T20:16:55.328Z,67.62
2023-02-19T20:19:22.456Z,68.10
2023-02-19T20:21:52.582Z,68.45
2023-02-19T20:24:22.343Z,67.90
2023-02-19T20:26:49.433Z,68.00
2023-02-19T20:29:16.592Z,68.41
2023-02-19T20:31:50.076Z,69.20
2023-02-19T20:34:18.202Z,68.36
2023-02-19T20:36:48.867Z,67.85
2023-02-19T20:39:17.744Z,68.36
2023-02-19T20:41:45.946Z,68.28
2023-02-19T20:44:13.363Z,68.44
2023-02-19T20:46:44.851Z,67.74
2023-02-19T20:49:12.711Z,68.17
2023-02-19T20:52:00.395Z,68.44
2023-02-19T20:54:30.015Z,68.87
2023-02-19T20:57:00.037Z,69.64
2023-02-19T20:59:30.678Z,69.24
2023-02-19T21:02:04.596Z,69.28
2023-02-19T21:04:31.676Z,69.62
2023-02-19T21:06:59.339Z,68.82
2023-02-19T21:09:26.374Z,69.16
2023-02-19T21:11:53.271Z,68.69
2023-02-19T21:14:20.321Z,67.94
2023-02-19T21:16:47.424Z,68.54
2023-02-19T21:19:14.534Z,68.18
2023-02-19T21:21:41.424Z,68.14
2023-02-19T21:24:09.740Z,67.87
2023-02-19T21:26:39.463Z,67.44
2023-02-19T21:29:08.432Z,67.39
2023-02-19T21:31:47.437Z,66.96
2023-02-19T21:34:17.720Z,67.51
2023-02-19T21:36:45.167Z,67.18
2023-02-19T21:39:16.054Z,67.41
2023-02-19T21:41:43.108Z,67.23
2023-02-19T21:44:10.114Z,66.48
2023-02-19T21:46:37.354Z,66.78
2023-02-19T21:49:04.888Z,66.45
2023-02-19T21:51:37.546Z,65.63
2023-02-19T21:54:06.474Z,65.81
2023-02-19T21:56:36.369Z,65.69
2023-02-19T21:59:04.438Z,65.45
2023-02-19T22:01:34.156Z,65.02
2023-02-19T22:04:01.366Z,65.33
2023-02-19T22:06:30.823Z,64.53
2023-02-19T22:08:58.717Z,65.01
2023-02-19T22:11:26.044Z,65.08
2023-02-19T22:13:53.236Z,64.79
2023-02-19T22:16:20.952Z,64.55
2023-02-19T22:18:57.155Z,63.50
2023-02-19T22:21:26.662Z,63.49
2023-02-19T22:23:55.179Z,63.19
2023-02-19T22:26:30.393Z,63.44
2023-02-19T22:28:57.949Z,63.10
2023-02-19T22:31:27.007Z,63.57
2023-02-19T22:33:55.752Z,62.64
2023-02-19T22:36:25.342Z,62.61
2023-02-19T22:38:52.914Z,63.31
2023-02-19T22:41:21.029Z,63.30
2023-02-19T22:43:48.155Z,63.78
2023-02-19T22:46:18.848Z,63.06
2023-02-19T22:48:46.508Z,63.66
2023-02-19T22:51:16.086Z,63.71
2023-02-19T22:53:47.948Z,63.94
2023-02-19T22:56:16.461Z,63.27
2023-02-19T22:58:43.966Z,63.70
2023-02-19T23:01:12.294Z,63.69
2023-02-19T23:03:52.686Z,63.67
2023-02-19T23:06:31.148Z,64.32
2023-02-19T23:09:01.450Z,63.30
2023-02-19T23:11:31.615Z,63.96
2023-02-19T23:13:59.018Z,63.89
2023-02-19T23:16:26.708Z,63.44
2023-02-19T23:18:54.301Z,63.17
2023-02-19T23:21:22.136Z,63.69
2023-02-19T23:23:49.333Z,62.89
2023-02-19T23:26:16.803Z,62.89
2023-02-19T23:28:44.680Z,63.16
2023-02-19T23:31:12.786Z,63.98
2023-02-19T23:33:40.165Z,63.29
2023-02-19T23:36:08.110Z,63.59
2023-02-19T23:38:35.306Z,63.79
2023-02-19T23:41:02.653Z,63.79
2023-02-19T23:43:29.714Z,64.25
2023-02-19T23:45:56.639Z,63.99
2023-02-19T23:48:23.601Z,63.97
2023-02-19T23:50:50.485Z,64.46
2023-02-19T23:53:17.402Z,64.41
2023-02-19T23:55:44.514Z,64.43
2023-02-19T23:58:11.373Z,64.11
